메인 페이지
METAR-TAF:

METAR-TAF

공항 :

바르샤바 프레드릭 쇼팽 국제공항

바르샤바, 폴란드

위도: 52-10N, 경도: 020-58E, 고도: 106m

현재 날씨관측

예보는 23분 전, 02:30시(UTC)에 발표되었습니다.
서남서5kt남남서풍과 풍을 오가는
온도 3°C
습도 75%
기압 1017 hPa
시정 10km 이상
고도 2800ft 상공 구름 조금

METAR: EPWA 190230Z 24005KT 210V280 9999 FEW028 03/M01 Q1017 NOSIG

시각: 03:53 (02:53 UTC)

예보

예보는 23분 전, 02:30시(UTC)에 발표되었습니다.
예보 대상 시간: 19일 03시부터 20일 03시까지 (UTC)
남남서7kt
시정 10km 이상
1500m 미만 상공 구름 및 적란운 없음
전환 중
19일 05시부터 19일 08시까지 (UTC)
12kt
일시적
19일 05시부터 19일 17시까지 (UTC)
고도 3000ft 상공 구름 많음, 적란운.
약한소나기
확률 40% :
일시적
19일 10시부터 19일 15시까지 (UTC)
15kt, 순간 최대 풍속 25kt
확률 40%
20일 00시부터 20일 03시까지 (UTC)
시정: 4000m
박무

TAF: EPWA 190230Z 1903/2003 21007KT CAVOK BECMG 1905/1908 27012KT TEMPO 1905/1917 -SHRA BKN030CB PROB40 TEMPO 1910/1915 28015G25KT PROB40 2000/2003 4000 BR

4,000개 이상의 공항 관측 자료 및 예보 (METAR 및 TAF 보고).

지도상에서 검색 가능한 기상관측소가 노란 점과 빨간 점으로 표시되어 있습니다.

기상관측소 명을 보려면 표시 위로 마우스를 이동하세요.

날씨 관측과 예보를 보려면 클릭하세요.

지도 변경 : 확대하려면 엑스 표시가 있는 녹색 버튼, 축소하려면 빼기 표시가 있는 녹색 버튼, 다음 페이지의 지도를 보려면 녹색 화살표를 클릭하세요.


METAR-TAF: